Time;durP1;ratioP1;P1;durP2;ratioP2;P2;SDS_P1;SDS_P2;PMS_P1;PMS_P2;Temp;Humidity;BMP_temperature;BMP_pressure;BME280_temperature;BME280_humidity;BME280_pressure;Samples;Min_cycle;Max_cycle;Signal;HPM_P1;HPM_P2
2023/10/24 00:01:40;;;;;;;5.63;4.60;;;5.70;99.90;4.80;100203;;;;592112;242;24023;-76
2023/10/24 00:04:08;;;;;;;10.47;5.77;;;5.70;99.90;4.80;100198;;;;579836;248;24038;-76
2023/10/24 00:06:36;;;;;;;8.93;6.00;;;5.70;99.90;4.80;100198;;;;572870;247;24131;-76
2023/10/24 00:09:04;;;;;;;6.77;5.70;;;5.70;99.90;4.80;100209;;;;591692;239;24080;-76
2023/10/24 00:11:36;;;;;;;11.63;7.93;;;5.70;99.90;4.80;100214;;;;565041;248;35030;-76
2023/10/24 00:14:00;;;;;;;12.63;5.82;;;5.70;99.90;4.70;100209;;;;574897;247;35131;-76
2023/10/24 00:16:32;;;;;;;10.45;6.35;;;5.60;99.90;4.70;100214;;;;575442;247;35026;-76
2023/10/24 00:18:56;;;;;;;4.67;4.00;;;5.60;99.90;4.80;100210;;;;591357;242;23971;-76
2023/10/24 00:21:24;;;;;;;7.13;3.93;;;5.70;99.90;4.70;100212;;;;579530;248;24132;-76
2023/10/24 00:23:52;;;;;;;5.10;4.13;;;5.60;99.90;4.70;100209;;;;579590;247;24059;-76
2023/10/24 00:26:20;;;;;;;6.90;4.77;;;5.60;99.90;4.70;100208;;;;578926;243;23991;-76
2023/10/24 00:28:47;;;;;;;8.10;5.77;;;5.60;99.90;4.70;100203;;;;579316;248;24088;-76
2023/10/24 00:31:15;;;;;;;13.83;6.27;;;5.60;99.90;4.60;100209;;;;575427;248;24048;-77
2023/10/24 00:33:43;;;;;;;13.17;6.53;;;5.50;99.90;4.60;100211;;;;591467;242;23967;-75
2023/10/24 00:36:11;;;;;;;13.93;7.37;;;5.50;99.90;4.60;100201;;;;578978;248;24057;-76
2023/10/24 00:38:39;;;;;;;13.47;8.07;;;5.50;99.90;4.60;100198;;;;591298;242;24029;-76
2023/10/24 00:41:07;;;;;;;12.73;7.90;;;5.50;99.90;4.50;100206;;;;578877;248;24100;-76
2023/10/24 00:43:36;;;;;;;12.97;8.00;;;5.40;99.90;4.50;100206;;;;572439;247;24105;-77
2023/10/24 00:46:04;;;;;;;11.37;8.70;;;5.40;99.90;4.50;100205;;;;591468;242;24035;-75
2023/10/24 00:48:32;;;;;;;11.73;7.37;;;5.50;99.90;4.60;100204;;;;589233;243;24064;-76
2023/10/24 00:51:02;;;;;;;13.30;9.30;;;5.50;99.90;4.50;100199;;;;580049;243;23964;-76
2023/10/24 00:53:28;;;;;;;12.77;8.37;;;5.50;99.90;4.50;100202;;;;576672;248;24133;-76
2023/10/24 00:55:56;;;;;;;12.90;8.67;;;5.40;99.90;4.60;100202;;;;576854;243;23992;-76
2023/10/24 00:58:24;;;;;;;13.23;8.57;;;5.40;99.90;4.60;100188;;;;581944;243;24092;-76
2023/10/24 01:00:52;;;;;;;10.70;8.17;;;5.50;99.90;4.50;100187;;;;582260;243;23963;-76
2023/10/24 01:03:20;;;;;;;12.80;8.53;;;5.50;99.90;4.50;100191;;;;569559;248;24043;-75
2023/10/24 01:05:48;;;;;;;9.67;8.30;;;5.50;99.90;4.50;100197;;;;591066;243;24055;-75
2023/10/24 01:08:16;;;;;;;14.60;8.63;;;5.40;99.90;4.50;100189;;;;575638;240;24068;-76
2023/10/24 01:10:43;;;;;;;12.00;8.03;;;5.40;99.90;4.50;100189;;;;586159;243;24066;-75
2023/10/24 01:13:11;;;;;;;14.63;8.50;;;5.40;99.90;4.50;100199;;;;591347;242;24071;-75
2023/10/24 01:15:40;;;;;;;10.47;8.13;;;5.40;99.90;4.50;100192;;;;590827;243;24123;-76
2023/10/24 01:18:08;;;;;;;12.63;8.70;;;5.40;99.90;4.50;100191;;;;590920;243;24115;-75
2023/10/24 01:20:39;;;;;;;11.53;8.47;;;5.40;99.90;4.50;100187;;;;590570;243;24126;-75
2023/10/24 01:23:07;;;;;;;11.27;8.30;;;5.40;99.90;4.50;100182;;;;587851;244;24066;-76
2023/10/24 01:25:32;;;;;;;12.57;8.07;;;5.40;99.90;4.50;100185;;;;589941;243;24143;-77
2023/10/24 01:28:03;;;;;;;13.83;9.07;;;5.40;99.90;4.50;100176;;;;590519;243;24087;-75
2023/10/24 01:30:28;;;;;;;12.77;8.20;;;5.40;99.90;4.50;100179;;;;586290;244;24160;-77
2023/10/24 01:32:56;;;;;;;14.40;8.40;;;5.40;99.90;4.50;100193;;;;590629;243;24064;-76
2023/10/24 01:35:28;;;;;;;9.50;6.83;;;5.40;99.90;4.50;100191;;;;590543;243;24102;-76
2023/10/24 01:37:53;;;;;;;9.63;6.37;;;5.40;99.90;4.50;100185;;;;590350;243;25133;-76
2023/10/24 01:40:21;;;;;;;9.30;6.43;;;5.40;99.90;4.50;100189;;;;590520;243;24102;-77
2023/10/24 01:42:49;;;;;;;13.33;6.87;;;5.40;99.90;4.50;100179;;;;578451;244;24147;-77
2023/10/24 01:45:16;;;;;;;10.33;6.27;;;5.40;99.90;4.40;100181;;;;590371;243;24086;-76
2023/10/24 01:47:45;;;;;;;9.40;6.73;;;5.30;99.90;4.40;100178;;;;589999;242;24058;-76
2023/10/24 01:50:13;;;;;;;9.93;7.27;;;5.30;99.90;4.40;100184;;;;589908;243;24065;-77
2023/10/24 01:52:42;;;;;;;9.67;7.00;;;5.20;99.90;4.30;100187;;;;589808;243;24081;-76
2023/10/24 01:55:10;;;;;;;10.57;7.00;;;5.20;99.90;4.30;100193;;;;589929;243;24141;-76
2023/10/24 01:57:38;;;;;;;12.40;6.33;;;5.20;99.90;4.30;100184;;;;578096;244;24073;-76
2023/10/24 02:00:06;;;;;;;11.77;5.97;;;5.20;99.90;4.30;100189;;;;590380;243;24125;-76
2023/10/24 02:02:34;;;;;;;13.40;6.83;;;5.20;99.90;4.20;100185;;;;587519;244;24101;-77
2023/10/24 02:05:02;;;;;;;7.27;6.57;;;5.20;99.90;4.20;100186;;;;590494;243;24098;-76
2023/10/24 02:07:30;;;;;;;6.83;6.13;;;5.10;99.90;4.20;100190;;;;590488;243;24091;-76
2023/10/24 02:09:58;;;;;;;6.93;6.20;;;5.10;99.90;4.20;100181;;;;590100;239;24095;-76
2023/10/24 02:12:26;;;;;;;11.17;6.47;;;5.10;99.90;4.20;100185;;;;590462;242;24074;-77
2023/10/24 02:14:54;;;;;;;9.20;6.63;;;5.10;99.90;4.10;100174;;;;590451;243;24121;-76
2023/10/24 02:17:22;;;;;;;10.97;7.30;;;5.10;99.90;4.10;100176;;;;590177;242;24066;-76
2023/10/24 02:19:52;;;;;;;9.63;6.93;;;5.00;99.90;4.10;100178;;;;591635;241;24111;-75
2023/10/24 02:22:18;;;;;;;10.50;6.10;;;5.00;99.90;4.10;100182;;;;590879;242;24102;-75
2023/10/24 02:24:46;;;;;;;9.17;6.53;;;5.00;99.90;4.10;100188;;;;590840;243;24132;-76
2023/10/24 02:27:14;;;;;;;9.40;6.67;;;5.00;99.90;4.00;100182;;;;590711;242;24127;-75
2023/10/24 02:29:42;;;;;;;9.70;7.07;;;5.00;99.90;4.10;100187;;;;590965;243;27300;-75
2023/10/24 02:32:10;;;;;;;9.93;7.03;;;5.00;99.90;4.00;100191;;;;590950;242;24154;-76
2023/10/24 02:34:38;;;;;;;9.00;6.83;;;4.90;99.90;4.00;100182;;;;591091;243;24053;-77
2023/10/24 02:37:07;;;;;;;8.67;6.53;;;4.90;99.90;4.00;100178;;;;590763;242;24074;-77
2023/10/24 02:39:35;;;;;;;9.37;7.07;;;4.90;99.90;4.00;100180;;;;590670;243;24095;-76
2023/10/24 02:42:03;;;;;;;7.83;6.97;;;4.90;99.90;4.00;100180;;;;590826;242;24066;-77
2023/10/24 02:44:32;;;;;;;7.80;6.40;;;4.90;99.90;4.00;100174;;;;590847;243;24058;-76
2023/10/24 02:46:59;;;;;;;9.77;6.70;;;4.90;99.90;3.90;100184;;;;590415;243;24095;-76
2023/10/24 02:49:27;;;;;;;9.80;7.70;;;5.30;99.90;3.90;100177;;;;590343;242;24072;-76
2023/10/24 02:51:55;;;;;;;10.83;8.40;;;4.80;99.90;3.80;100173;;;;590183;243;24064;-76
2023/10/24 02:54:23;;;;;;;9.60;7.43;;;4.80;99.90;3.80;100169;;;;590172;243;25124;-75
2023/10/24 02:56:51;;;;;;;11.70;7.57;;;4.70;99.90;3.80;100159;;;;590186;243;24153;-76
2023/10/24 02:59:19;;;;;;;13.73;7.87;;;4.70;99.90;3.70;100153;;;;590596;243;24119;-76
2023/10/24 03:01:50;;;;;;;9.27;7.90;;;4.60;99.90;3.60;100148;;;;590976;243;24068;-76
2023/10/24 03:04:15;;;;;;;14.13;9.03;;;4.60;99.90;3.60;100156;;;;590712;243;24072;-77
2023/10/24 03:06:42;;;;;;;11.57;8.97;;;4.50;99.90;3.60;100158;;;;591420;243;24086;-79
2023/10/24 03:09:10;;;;;;;11.77;7.93;;;4.50;99.90;3.60;100160;;;;590923;239;24200;-75
2023/10/24 03:11:38;;;;;;;60.00;43.43;;;4.50;99.90;3.60;100153;;;;591041;243;24108;-75
2023/10/24 03:14:06;;;;;;;18.17;13.80;;;4.50;99.90;3.60;100146;;;;591866;243;24084;-74
2023/10/24 03:16:34;;;;;;;14.67;10.27;;;4.50;99.90;3.70;100146;;;;591623;243;24076;-79
2023/10/24 03:19:02;;;;;;;16.97;10.10;;;4.60;99.90;3.70;100149;;;;591273;243;24196;-77
2023/10/24 03:21:30;;;;;;;16.70;10.00;;;4.60;99.90;3.70;100151;;;;590961;243;24124;-77
2023/10/24 03:23:58;;;;;;;10.27;8.70;;;4.60;99.90;3.80;100151;;;;591003;243;24120;-77
2023/10/24 03:26:26;;;;;;;12.02;8.05;;;4.70;99.90;3.80;100157;;;;585479;243;35285;-77
2023/10/24 03:28:54;;;;;;;9.83;5.90;;;4.70;99.90;3.80;100152;;;;590674;243;24140;-76
2023/10/24 03:31:22;;;;;;;6.50;5.53;;;4.70;99.90;3.80;100156;;;;579817;242;24142;-76
2023/10/24 03:33:49;;;;;;;14.20;8.00;;;4.70;99.90;3.80;100154;;;;591861;242;24161;-76
2023/10/24 03:36:17;;;;;;;12.50;8.67;;;4.70;99.90;3.80;100151;;;;591685;242;24117;-76
2023/10/24 03:38:46;;;;;;;10.07;8.57;;;4.60;99.90;3.70;100155;;;;591376;243;24060;-76
2023/10/24 03:41:14;;;;;;;13.20;9.47;;;4.60;99.90;3.70;100152;;;;592512;242;24078;-78
2023/10/24 03:43:48;;;;;;;13.97;9.27;;;4.60;99.90;3.60;100156;;;;593111;242;24029;-76
2023/10/24 03:46:10;;;;;;;11.37;9.63;;;4.60;99.90;3.60;100164;;;;593194;240;24028;-75
2023/10/24 03:48:38;;;;;;;15.30;10.77;;;4.60;99.90;3.60;100154;;;;576706;247;24083;-76
2023/10/24 03:51:06;;;;;;;13.77;10.13;;;4.50;99.90;3.60;100151;;;;592494;242;24039;-77
2023/10/24 03:53:33;;;;;;;11.17;9.90;;;4.50;99.90;3.60;100159;;;;592651;243;24082;-76
2023/10/24 03:56:01;;;;;;;16.07;9.43;;;4.50;99.90;3.60;100164;;;;580992;247;24188;-77
2023/10/24 03:58:29;;;;;;;13.17;9.77;;;4.50;99.90;3.50;100167;;;;573026;247;24058;-76
2023/10/24 04:00:58;;;;;;;14.00;9.77;;;4.40;99.90;3.40;100167;;;;591879;242;24004;-77
2023/10/24 04:03:27;;;;;;;12.90;10.47;;;4.40;99.90;3.40;100165;;;;584479;243;24144;-75
2023/10/24 04:05:54;;;;;;;12.70;9.93;;;4.30;99.90;3.30;100168;;;;591905;243;23992;-76
2023/10/24 04:08:22;;;;;;;12.03;8.83;;;4.30;99.90;3.30;100166;;;;579269;243;24062;-77
2023/10/24 04:10:50;;;;;;;15.55;7.40;;;4.20;99.90;3.20;100166;;;;574364;248;35148;-76
2023/10/24 04:13:23;;;;;;;10.63;6.03;;;4.10;99.90;3.20;100164;;;;572811;247;25110;-77
2023/10/24 04:15:47;;;;;;;13.47;7.13;;;4.10;99.90;3.10;100161;;;;580164;247;24052;-79
2023/10/24 04:18:15;;;;;;;19.40;9.90;;;4.10;99.90;3.10;100172;;;;579299;247;24069;-77
2023/10/24 04:20:43;;;;;;;15.77;10.87;;;4.10;99.90;3.10;100172;;;;591179;242;24027;-78
2023/10/24 04:23:14;;;;;;;19.73;11.37;;;4.00;99.90;3.10;100163;;;;586086;242;24095;-76
2023/10/24 04:25:42;;;;;;;15.63;11.70;;;4.00;99.90;3.10;100163;;;;579770;247;24114;-76
2023/10/24 04:28:11;;;;;;;16.13;12.43;;;4.10;99.90;3.20;100166;;;;572405;247;24153;-77
2023/10/24 04:30:41;;;;;;;18.80;12.43;;;4.10;99.90;3.20;100173;;;;579994;247;24129;-77
2023/10/24 04:33:13;;;;;;;19.37;12.87;;;4.10;99.90;3.30;100186;;;;578328;248;24058;-76
2023/10/24 04:35:46;;;;;;;16.20;11.50;;;4.30;99.90;3.40;100179;;;;579427;246;24069;-76
2023/10/24 04:38:12;;;;;;;23.93;11.70;;;4.40;99.90;3.50;100178;;;;591257;243;24083;-76
2023/10/24 04:40:40;;;;;;;18.67;12.20;;;4.30;99.90;3.50;100175;;;;591117;243;23995;-76
2023/10/24 04:43:12;;;;;;;16.03;11.70;;;4.40;99.90;3.50;100169;;;;580462;243;24164;-76
2023/10/24 04:45:36;;;;;;;19.17;12.40;;;4.50;99.90;3.50;100174;;;;568735;247;24151;-76
2023/10/24 04:48:04;;;;;;;15.97;10.90;;;4.40;99.90;3.50;100178;;;;568973;248;24087;-81
2023/10/24 04:50:32;;;;;;;16.70;10.93;;;4.40;99.90;3.50;100168;;;;572458;246;24142;-82
2023/10/24 04:53:03;;;;;;;19.67;12.80;;;4.40;99.90;3.50;100182;;;;575771;247;24063;-80
2023/10/24 04:55:28;;;;;;;19.40;13.97;;;4.40;99.90;3.40;100177;;;;578753;243;24150;-77
2023/10/24 04:57:56;;;;;;;21.83;13.70;;;4.40;99.90;3.40;100169;;;;580739;241;24086;-76
2023/10/24 05:00:27;;;;;;;19.90;14.57;;;4.40;99.90;3.40;100170;;;;591936;242;24030;-77
2023/10/24 05:02:55;;;;;;;19.97;14.30;;;4.30;99.90;3.40;100159;;;;580497;247;24090;-77
2023/10/24 05:05:19;;;;;;;21.57;14.93;;;4.30;99.90;3.30;100153;;;;582703;243;23992;-77
2023/10/24 05:07:48;;;;;;;24.67;15.57;;;4.30;99.90;3.30;100160;;;;592261;243;24061;-78
2023/10/24 05:10:15;;;;;;;19.87;12.90;;;4.20;99.90;3.40;100151;;;;572480;247;24062;-78
2023/10/24 05:12:44;;;;;;;24.07;13.57;;;4.30;99.90;3.40;100163;;;;591360;242;24053;-76
2023/10/24 05:15:13;;;;;;;17.33;12.13;;;4.30;99.90;3.40;100168;;;;591463;243;24123;-76
2023/10/24 05:17:40;;;;;;;19.17;13.07;;;4.30;99.90;3.40;100174;;;;580100;247;24094;-76
2023/10/24 05:20:12;;;;;;;22.63;14.07;;;4.30;99.90;3.40;100173;;;;572439;247;24089;-77
2023/10/24 05:22:36;;;;;;;17.70;12.47;;;4.30;99.90;3.40;100174;;;;579114;243;24013;-76
2023/10/24 05:25:04;;;;;;;20.80;13.87;;;4.30;99.90;3.50;100182;;;;591727;243;24088;-78
2023/10/24 05:27:32;;;;;;;21.67;12.47;;;4.40;99.90;3.50;100187;;;;580351;247;24031;-79
2023/10/24 05:30:00;;;;;;;18.30;12.73;;;4.40;99.90;3.60;100199;;;;580418;247;24040;-80
2023/10/24 05:32:29;;;;;;;20.97;14.33;;;4.50;99.90;3.60;100207;;;;591619;243;23978;-76
2023/10/24 05:34:57;;;;;;;17.50;12.10;;;4.50;99.90;3.60;100204;;;;569425;248;24066;-76
2023/10/24 05:37:25;;;;;;;18.80;10.30;;;4.50;99.90;3.70;100207;;;;575306;247;24101;-77
2023/10/24 05:39:52;;;;;;;12.57;8.67;;;4.60;99.90;3.80;100212;;;;579951;247;24064;-76
2023/10/24 05:42:20;;;;;;;11.30;7.77;;;4.70;99.90;4.00;100201;;;;591137;243;23979;-77
2023/10/24 05:44:48;;;;;;;13.53;7.27;;;4.80;99.90;4.00;100190;;;;578946;248;24083;-77
2023/10/24 05:47:16;;;;;;;16.70;7.70;;;4.90;99.90;4.10;100194;;;;574945;248;24043;-76
2023/10/24 05:49:44;;;;;;;11.50;7.57;;;5.00;99.90;4.20;100190;;;;580022;247;24182;-76
2023/10/24 05:52:12;;;;;;;10.40;7.77;;;5.10;99.90;4.30;100196;;;;591335;243;24018;-76
2023/10/24 05:54:41;;;;;;;15.27;6.63;;;5.20;99.90;4.30;100193;;;;589650;242;24059;-76
2023/10/24 05:57:09;;;;;;;9.20;5.87;;;5.20;99.90;4.40;100184;;;;592813;242;24013;-76
2023/10/24 05:59:36;;;;;;;8.70;6.33;;;5.30;99.90;4.50;100184;;;;580164;248;24069;-77
2023/10/24 06:02:04;;;;;;;12.77;6.77;;;5.40;99.90;4.60;100193;;;;592501;242;23995;-77
2023/10/24 06:04:34;;;;;;;11.37;6.23;;;5.50;99.90;4.70;100183;;;;584909;245;24136;-77
2023/10/24 06:07:01;;;;;;;17.37;8.80;;;5.50;99.90;4.70;100196;;;;579996;248;24121;-77
2023/10/24 06:09:29;;;;;;;12.23;6.60;;;5.60;99.90;4.80;100193;;;;592006;238;24014;-76
2023/10/24 06:11:57;;;;;;;12.47;7.47;;;5.70;99.90;4.80;100186;;;;579405;248;24046;-76
2023/10/24 06:14:25;;;;;;;20.23;8.00;;;5.80;99.90;4.90;100191;;;;579276;247;24090;-76
2023/10/24 06:16:54;;;;;;;11.67;8.13;;;5.90;99.90;5.00;100177;;;;591544;242;23999;-76
2023/10/24 06:19:22;;;;;;;16.67;8.67;;;5.90;99.90;5.10;100177;;;;579303;246;24070;-76
2023/10/24 06:21:50;;;;;;;12.80;7.47;;;6.00;99.90;5.20;100191;;;;579274;248;24087;-76
2023/10/24 06:24:18;;;;;;;16.87;8.27;;;6.00;99.90;5.30;100187;;;;591959;242;24037;-76
2023/10/24 06:26:46;;;;;;;17.00;9.10;;;6.20;99.90;5.40;100186;;;;579600;248;24099;-76
2023/10/24 06:29:14;;;;;;;20.07;10.00;;;6.20;99.90;5.50;100184;;;;591778;243;23992;-75
2023/10/24 06:31:43;;;;;;;22.13;9.70;;;6.40;99.90;5.60;100181;;;;591601;243;24143;-77
2023/10/24 06:34:11;;;;;;;10.90;7.20;;;6.40;99.90;5.70;100182;;;;580446;247;24058;-76
2023/10/24 06:36:39;;;;;;;21.93;9.17;;;6.50;99.90;5.80;100190;;;;591326;242;24042;-77
2023/10/24 06:39:07;;;;;;;12.60;7.30;;;6.70;99.90;5.90;100194;;;;578874;248;24067;-76
2023/10/24 06:41:35;;;;;;;11.73;6.33;;;6.80;99.90;6.00;100183;;;;590961;243;23964;-77
2023/10/24 06:44:03;;;;;;;17.13;9.60;;;6.80;99.90;6.10;100181;;;;574077;248;35146;-78
2023/10/24 06:46:31;;;;;;;12.90;7.60;;;7.00;99.90;6.20;100183;;;;591166;243;24036;-77
2023/10/24 06:48:58;;;;;;;10.27;5.30;;;7.00;99.90;6.30;100176;;;;578993;248;24104;-76
2023/10/24 06:51:26;;;;;;;14.50;6.13;;;7.20;99.90;6.30;100170;;;;591174;243;23987;-76
2023/10/24 06:53:58;;;;;;;10.50;4.93;;;7.20;99.90;6.40;100168;;;;578828;248;24080;-77
2023/10/24 06:56:25;;;;;;;6.80;4.57;;;7.30;99.90;6.40;100165;;;;583564;242;23985;-76
2023/10/24 06:58:53;;;;;;;8.00;4.43;;;7.30;99.90;6.40;100158;;;;579157;248;24060;-76
2023/10/24 07:01:21;;;;;;;11.93;5.37;;;7.30;99.90;6.40;100170;;;;578981;247;24085;-79
2023/10/24 07:03:50;;;;;;;17.90;7.47;;;7.30;99.90;6.50;100172;;;;586039;243;34321;-77
2023/10/24 07:06:19;;;;;;;9.63;5.80;;;7.30;99.90;6.50;100175;;;;585972;243;24187;-77
2023/10/24 07:08:48;;;;;;;8.90;5.47;;;7.40;99.90;6.50;100166;;;;581209;243;24111;-74
2023/10/24 07:11:15;;;;;;;12.67;5.33;;;7.30;99.90;6.60;100165;;;;591891;242;24075;-76
2023/10/24 07:13:43;;;;;;;7.50;5.20;;;7.40;99.90;6.70;100166;;;;580796;246;24142;-77
2023/10/24 07:16:11;;;;;;;9.60;4.03;;;7.50;99.90;6.70;100170;;;;591466;242;24006;-77
2023/10/24 07:18:40;;;;;;;12.73;6.67;;;7.70;99.90;6.90;100168;;;;577111;243;35228;-77
2023/10/24 07:21:08;;;;;;;11.77;5.40;;;7.70;99.90;7.00;100160;;;;591630;242;23975;-77
2023/10/24 07:23:38;;;;;;;12.03;5.17;;;7.80;99.90;7.20;100180;;;;579284;248;24105;-76
2023/10/24 07:26:04;;;;;;;17.00;5.83;;;8.00;99.90;7.40;100172;;;;580234;247;24087;-76
2023/10/24 07:28:32;;;;;;;12.43;5.47;;;8.40;99.90;7.50;100180;;;;580441;247;24066;-76
2023/10/24 07:31:01;;;;;;;8.70;4.90;;;8.50;99.90;7.60;100187;;;;591747;242;24006;-78
2023/10/24 07:33:29;;;;;;;10.57;5.20;;;8.40;99.90;7.70;100184;;;;579558;248;24061;-76
2023/10/24 07:35:57;;;;;;;14.07;4.77;;;8.50;99.90;7.80;100198;;;;572804;247;24137;-78
2023/10/24 07:38:24;;;;;;;9.47;5.37;;;8.60;99.90;7.80;100192;;;;574589;247;24132;-76
2023/10/24 07:40:52;;;;;;;9.30;5.93;;;8.70;99.90;8.00;100189;;;;591122;242;23987;-78
2023/10/24 07:43:20;;;;;;;12.80;7.30;;;8.80;99.90;8.20;100202;;;;578921;248;24090;-76
2023/10/24 07:45:55;;;;;;;8.40;5.33;;;9.00;99.90;8.40;100208;;;;591041;242;23980;-77
2023/10/24 07:48:20;;;;;;;10.73;4.90;;;9.20;99.90;8.80;100202;;;;566605;249;24094;-77
2023/10/24 07:50:53;;;;;;;17.50;4.73;;;9.50;99.90;9.10;100198;;;;574839;244;24156;-76
2023/10/24 07:53:21;;;;;;;6.73;4.80;;;9.80;99.90;9.40;100198;;;;588247;244;24097;-76
2023/10/24 07:55:49;;;;;;;6.87;3.97;;;10.10;99.90;9.80;100195;;;;579185;244;24079;-77
2023/10/24 07:58:18;;;;;;;5.40;3.67;;;10.40;99.90;10.30;100187;;;;588707;243;24101;-76
2023/10/24 08:00:46;;;;;;;6.20;3.93;;;11.50;99.90;10.70;100177;;;;580568;244;24082;-77
2023/10/24 08:03:20;;;;;;;9.50;4.20;;;11.30;99.90;11.80;100176;;;;577658;244;24068;-76
2023/10/24 08:05:45;;;;;;;6.07;4.47;;;12.20;99.90;12.00;100174;;;;588228;244;24084;-76
2023/10/24 08:08:13;;;;;;;8.20;4.27;;;12.70;99.90;12.00;100191;;;;588420;240;24073;-76
2023/10/24 08:10:40;;;;;;;7.47;3.67;;;12.80;99.90;12.10;100187;;;;588750;243;24062;-79
2023/10/24 08:13:09;;;;;;;8.90;3.90;;;13.20;99.90;12.30;100187;;;;588752;243;24086;-77
2023/10/24 08:15:38;;;;;;;9.47;4.90;;;13.30;99.90;12.50;100181;;;;588821;242;24101;-77
2023/10/24 08:18:06;;;;;;;16.97;4.50;;;13.50;99.90;12.60;100187;;;;590136;243;24063;-77
2023/10/24 08:20:34;;;;;;;9.43;4.90;;;13.50;99.90;12.80;100183;;;;589613;242;24133;-75
2023/10/24 08:23:02;;;;;;;9.80;4.53;;;13.70;99.90;12.90;100181;;;;589535;241;24081;-77
2023/10/24 08:25:31;;;;;;;7.07;4.07;;;13.80;99.90;12.80;100185;;;;589170;242;24059;-78
2023/10/24 08:27:58;;;;;;;9.90;4.57;;;13.90;99.90;12.80;100186;;;;588780;244;24140;-77
2023/10/24 08:30:26;;;;;;;9.43;4.20;;;13.90;99.90;12.70;100191;;;;588580;244;24090;-78
2023/10/24 08:32:54;;;;;;;5.47;3.57;;;13.80;99.90;12.80;100184;;;;588220;242;24058;-78
2023/10/24 08:35:22;;;;;;;6.73;3.37;;;13.80;99.90;13.60;100183;;;;588738;242;24210;-78
2023/10/24 08:37:53;;;;;;;8.50;3.90;;;14.30;99.90;15.50;100171;;;;588705;243;24083;-77
2023/10/24 08:40:18;;;;;;;6.47;3.23;;;15.90;99.90;17.50;100175;;;;588252;244;24079;-82
2023/10/24 08:42:46;;;;;;;7.73;3.10;;;18.00;99.90;19.60;100181;;;;580157;244;24094;-79
2023/10/24 08:45:14;;;;;;;4.28;2.83;;;20.10;99.90;21.30;100183;;;;584400;243;35100;-78
2023/10/24 08:47:43;;;;;;;4.50;3.40;;;21.90;99.90;22.60;100166;;;;589258;243;23098;-81
2023/10/24 08:50:09;;;;;;;6.50;2.33;;;23.50;99.90;23.60;100163;;;;588625;244;24060;-81
2023/10/24 08:52:37;;;;;;;5.40;3.17;;;24.70;99.90;25.10;100153;;;;575189;244;23094;-76
2023/10/24 08:55:05;;;;;;;6.33;2.53;;;26.00;93.20;25.80;100152;;;;579386;244;24072;-78
2023/10/24 08:57:40;;;;;;;7.33;3.00;;;27.00;86.00;26.40;100152;;;;577492;244;23226;-77
2023/10/24 09:00:14;;;;;;;5.83;3.03;;;27.70;78.80;26.80;100159;;;;588690;244;24086;-77
2023/10/24 09:02:47;;;;;;;6.37;3.33;;;28.10;74.30;27.00;100168;;;;579946;244;23135;-77
2023/10/24 09:05:17;;;;;;;5.73;3.47;;;28.30;70.40;27.10;100166;;;;591907;243;23087;-77
2023/10/24 09:07:45;;;;;;;5.53;3.47;;;28.40;68.20;26.80;100169;;;;575507;248;23109;-80
2023/10/24 09:10:12;;;;;;;4.18;3.47;;;28.10;69.00;26.60;100163;;;;591562;240;24120;-80
2023/10/24 09:12:44;;;;;;;8.23;2.53;;;27.60;67.50;25.70;100167;;;;591295;242;23066;-79
2023/10/24 09:15:12;;;;;;;7.27;3.63;;;26.80;67.50;23.80;100167;;;;591856;243;24099;-78
2023/10/24 09:17:40;;;;;;;7.37;4.07;;;25.50;70.30;22.20;100160;;;;578487;244;25243;-78
2023/10/24 09:20:04;;;;;;;12.60;4.97;;;24.00;73.80;20.90;100155;;;;591484;242;23110;-81
2023/10/24 09:22:34;;;;;;;13.97;4.77;;;22.70;78.00;19.90;100151;;;;591815;243;23009;-78
2023/10/24 09:25:01;;;;;;;7.13;3.83;;;21.60;81.40;19.10;100144;;;;591872;243;24081;-77
2023/10/24 09:27:28;;;;;;;5.37;3.53;;;20.60;85.60;18.10;100142;;;;581068;241;24017;-80
2023/10/24 09:29:56;;;;;;;9.37;3.13;;;19.60;86.90;17.10;100139;;;;593759;242;23102;-75
2023/10/24 09:32:24;;;;;;;2.90;2.57;;;18.50;90.30;16.40;100139;;;;593316;242;23979;-77
2023/10/24 09:34:55;;;;;;;5.93;2.63;;;17.70;91.90;15.70;100143;;;;581747;243;24107;-78
2023/10/24 09:37:23;;;;;;;10.23;4.10;;;16.90;93.70;15.00;100141;;;;593146;242;23990;-77
2023/10/24 09:40:03;;;;;;;4.13;3.00;;;16.20;95.80;14.40;100141;;;;583401;242;24033;-82
2023/10/24 09:42:31;;;;;;;8.33;3.37;;;15.00;99.90;14.00;100139;;;;591983;243;24093;-81
2023/10/24 09:45:02;;;;;;;11.20;3.23;;;15.00;99.90;13.70;100135;;;;580921;243;24032;-79
2023/10/24 09:47:26;;;;;;;8.97;2.67;;;14.70;99.90;13.40;100137;;;;588776;243;24087;-82
2023/10/24 09:49:57;;;;;;;5.20;2.17;;;14.40;99.90;13.20;100139;;;;572795;248;24162;-76
2023/10/24 09:52:23;;;;;;;7.10;2.63;;;14.10;99.90;12.80;100133;;;;591259;243;24036;-76
2023/10/24 09:54:54;;;;;;;3.97;2.30;;;13.50;99.90;12.60;100118;;;;577396;243;24052;-78
2023/10/24 09:57:20;;;;;;;5.17;2.80;;;13.30;99.90;12.40;100115;;;;571359;248;24093;-77
2023/10/24 09:59:51;;;;;;;12.30;2.40;;;13.20;99.90;12.20;100113;;;;585594;245;24285;-78
2023/10/24 10:02:21;;;;;;;4.50;2.97;;;13.00;99.90;12.00;100110;;;;571404;247;24123;-77
2023/10/24 10:04:46;;;;;;;6.10;2.97;;;12.80;99.90;11.90;100104;;;;569678;247;24128;-77
2023/10/24 10:07:14;;;;;;;5.00;2.73;;;12.70;99.90;11.80;100107;;;;584967;245;24121;-78
2023/10/24 10:09:45;;;;;;;7.33;1.87;;;12.60;99.90;11.80;100098;;;;591324;239;24092;-78
2023/10/24 10:12:13;;;;;;;3.10;1.90;;;12.60;99.90;11.70;100097;;;;579762;247;24098;-76
2023/10/24 10:14:50;;;;;;;4.30;2.47;;;12.50;99.90;11.60;100104;;;;582126;243;24202;-79
2023/10/24 10:17:36;;;;;;;3.97;2.53;;;12.40;99.90;11.50;100099;;;;580192;247;24061;-78
2023/10/24 10:20:25;;;;;;;4.10;1.90;;;12.30;99.90;11.40;100093;;;;570287;247;24056;-78
2023/10/24 10:23:23;;;;;;;2.47;2.00;;;12.20;99.90;11.30;100085;;;;578674;248;24060;-77
2023/10/24 10:25:55;;;;;;;3.90;2.40;;;12.10;99.90;11.30;100090;;;;591085;242;25050;-77
2023/10/24 10:28:46;;;;;;;2.13;1.77;;;12.00;99.90;11.30;100097;;;;580670;247;24075;-76
2023/10/24 10:31:38;;;;;;;2.83;2.03;;;12.10;99.90;11.30;100093;;;;579834;243;23965;-77
2023/10/24 10:34:06;;;;;;;3.50;2.17;;;12.10;99.90;11.40;100084;;;;571911;248;24216;-79
2023/10/24 10:36:34;;;;;;;1.80;1.70;;;12.10;99.90;11.50;100080;;;;572716;248;24053;-77
2023/10/24 10:39:09;;;;;;;2.43;2.00;;;12.20;99.90;11.40;100081;;;;577599;242;23995;-77
2023/10/24 10:41:34;;;;;;;3.50;1.90;;;12.10;99.90;11.40;100069;;;;592566;242;24118;-77
2023/10/24 10:44:05;;;;;;;1.77;1.67;;;12.10;99.90;11.30;100062;;;;581075;247;24071;-77
2023/10/24 10:46:30;;;;;;;2.63;1.60;;;12.00;99.90;11.20;100058;;;;582862;243;24109;-77
2023/10/24 10:49:00;;;;;;;3.30;2.00;;;11.90;99.90;11.20;100057;;;;592879;242;24080;-76
2023/10/24 10:51:30;;;;;;;2.07;1.90;;;11.90;99.90;11.20;100057;;;;570202;247;24042;-76
2023/10/24 10:54:20;;;;;;;2.53;1.67;;;11.90;99.90;11.10;100058;;;;591423;243;24062;-77
2023/10/24 10:56:50;;;;;;;2.30;2.10;;;11.80;99.90;11.00;100053;;;;592963;242;24083;-75
2023/10/24 10:59:20;;;;;;;7.03;1.67;;;11.70;99.90;11.00;100046;;;;570637;248;24089;-74
2023/10/24 11:02:16;;;;;;;3.90;1.97;;;11.70;99.90;11.00;100038;;;;579546;247;24055;-76
2023/10/24 11:04:44;;;;;;;4.07;2.53;;;11.70;99.90;11.00;100033;;;;579892;243;23980;-76
2023/10/24 11:07:12;;;;;;;2.17;1.97;;;11.70;99.90;11.10;100026;;;;592418;242;24058;-76
2023/10/24 11:09:41;;;;;;;2.73;1.63;;;11.80;99.90;11.20;100028;;;;592236;239;23983;-80
2023/10/24 11:12:26;;;;;;;5.77;2.40;;;11.90;99.90;11.30;100037;;;;591833;243;25142;-78
2023/10/24 11:15:16;;;;;;;5.47;2.97;;;11.90;99.90;11.30;100048;;;;582696;243;23998;-78
2023/10/24 11:17:42;;;;;;;4.73;2.93;;;12.00;99.90;11.40;100037;;;;592587;243;24062;-77
2023/10/24 11:20:10;;;;;;;6.70;3.33;;;12.10;99.90;11.50;100038;;;;580499;247;24062;-81
2023/10/24 11:22:39;;;;;;;10.15;4.55;;;12.30;99.90;11.60;100048;;;;565457;248;35082;-77